createdAt,value
2022-08-05T00:01:36.295Z,54.24
2022-08-05T00:04:19.621Z,54.33
2022-08-05T00:06:51.713Z,54.48
2022-08-05T00:09:24.198Z,54.44
2022-08-05T00:11:56.093Z,54.44
2022-08-05T00:14:31.393Z,54.52
2022-08-05T00:17:04.287Z,54.70
2022-08-05T00:20:02.489Z,54.76
2022-08-05T00:22:32.824Z,55.50
2022-08-05T00:25:08.436Z,55.16
2022-08-05T00:27:42.906Z,55.18
2022-08-05T00:30:14.147Z,55.12
2022-08-05T00:32:42.514Z,55.69
2022-08-05T00:35:10.860Z,55.64
2022-08-05T00:37:52.707Z,55.71
2022-08-05T00:40:29.006Z,55.62
2022-08-05T00:43:00.797Z,55.59
2022-08-05T00:45:42.898Z,55.42
2022-08-05T00:48:15.732Z,55.74
2022-08-05T00:50:46.695Z,55.81
2022-08-05T00:54:01.481Z,55.90
2022-08-05T00:56:07.989Z,56.07
2022-08-05T00:58:37.055Z,56.01
2022-08-05T01:01:08.565Z,56.10
2022-08-05T01:03:39.027Z,56.06
2022-08-05T01:06:14.319Z,55.84
2022-08-05T01:08:44.979Z,55.57
2022-08-05T01:11:33.619Z,55.38
2022-08-05T01:14:31.801Z,55.43
2022-08-05T01:17:14.043Z,55.74
2022-08-05T01:20:27.078Z,55.87
2022-08-05T01:23:34.828Z,55.95
2022-08-05T01:26:14.199Z,56.14
2022-08-05T01:28:49.266Z,56.40
2022-08-05T01:31:28.139Z,56.39
2022-08-05T01:34:11.056Z,56.37
2022-08-05T01:36:47.785Z,56.29
2022-08-05T01:39:45.840Z,56.63
2022-08-05T01:42:09.620Z,56.59
2022-08-05T01:44:39.660Z,57.08
2022-08-05T01:47:10.819Z,56.90
2022-08-05T01:50:01.514Z,56.83
2022-08-05T01:52:32.869Z,57.07
2022-08-05T01:55:06.961Z,56.94
2022-08-05T01:58:09.944Z,57.15
2022-08-05T02:00:31.775Z,56.69
2022-08-05T02:03:24.447Z,57.42
2022-08-05T02:06:01.001Z,57.82
2022-08-05T02:08:33.931Z,58.11
2022-08-05T02:11:11.763Z,58.30
2022-08-05T02:13:56.507Z,58.24
2022-08-05T02:16:35.067Z,58.94
2022-08-05T02:19:08.795Z,59.02
2022-08-05T02:21:49.297Z,59.20
2022-08-05T02:24:23.014Z,59.53
2022-08-05T02:26:59.656Z,59.24
2022-08-05T02:29:58.402Z,59.40
2022-08-05T02:32:24.229Z,59.79
2022-08-05T02:35:09.582Z,60.14
2022-08-05T02:37:47.836Z,60.03
2022-08-05T02:40:24.684Z,60.28
2022-08-05T02:42:55.372Z,60.45
2022-08-05T02:45:25.599Z,60.91
2022-08-05T02:47:58.489Z,61.27
2022-08-05T02:50:38.389Z,60.90
2022-08-05T02:53:18.629Z,61.33
2022-08-05T02:55:54.190Z,61.23
2022-08-05T02:58:30.308Z,60.67
2022-08-05T03:01:02.721Z,61.02
2022-08-05T03:03:33.777Z,61.22
2022-08-05T03:06:55.446Z,61.49
2022-08-05T03:09:17.655Z,61.53
2022-08-05T03:11:56.477Z,61.54
2022-08-05T03:14:26.230Z,62.42
2022-08-05T03:16:54.554Z,61.79
2022-08-05T03:19:33.776Z,62.10
2022-08-05T03:22:04.830Z,61.65
2022-08-05T03:24:33.732Z,61.73
2022-08-05T03:27:03.854Z,62.35
2022-08-05T03:29:44.877Z,62.33
2022-08-05T03:32:30.846Z,62.17
2022-08-05T03:35:00.770Z,62.04
2022-08-05T03:37:31.401Z,61.92
2022-08-05T03:40:11.737Z,62.21
2022-08-05T03:42:41.812Z,62.64
2022-08-05T03:45:23.101Z,63.06
2022-08-05T03:47:56.709Z,63.87
2022-08-05T03:50:33.770Z,63.58
2022-08-05T03:55:51.763Z,63.15
2022-08-05T03:56:18.019Z,62.81
2022-08-05T03:59:03.987Z,62.51
2022-08-05T04:01:40.418Z,62.52
2022-08-05T04:04:11.034Z,62.31
2022-08-05T04:06:47.587Z,62.18
2022-08-05T04:09:26.086Z,61.91
2022-08-05T04:11:57.101Z,62.01
2022-08-05T04:14:29.823Z,61.78
2022-08-05T04:17:00.900Z,61.47
2022-08-05T04:19:31.450Z,60.81
2022-08-05T04:22:08.180Z,60.24
2022-08-05T04:24:43.954Z,59.21
2022-08-05T04:27:19.902Z,58.55
2022-08-05T04:30:03.815Z,58.03
2022-08-05T04:32:33.481Z,57.47
2022-08-05T04:35:04.651Z,56.87
2022-08-05T04:38:01.075Z,56.24
2022-08-05T04:40:22.379Z,55.24
2022-08-05T04:42:51.351Z,54.80
2022-08-05T04:45:23.033Z,54.78
2022-08-05T04:48:18.387Z,53.88
2022-08-05T04:51:02.513Z,53.35
2022-08-05T04:53:39.397Z,52.85
2022-08-05T04:56:32.306Z,52.55
2022-08-05T04:58:57.409Z,52.46
2022-08-05T05:02:06.279Z,51.80
2022-08-05T05:04:13.736Z,51.26
2022-08-05T05:06:44.632Z,50.60
2022-08-05T05:09:18.328Z,50.44
2022-08-05T05:11:54.499Z,50.12
2022-08-05T05:14:31.478Z,49.23
2022-08-05T05:17:01.162Z,48.86
2022-08-05T05:19:38.874Z,48.12
2022-08-05T05:22:24.152Z,47.38
2022-08-05T05:24:57.470Z,46.81
2022-08-05T05:27:41.819Z,46.61
2022-08-05T05:30:29.077Z,46.28
2022-08-05T05:33:08.879Z,45.65
2022-08-05T05:35:47.526Z,45.60
2022-08-05T05:38:22.560Z,45.62
2022-08-05T05:40:57.016Z,45.12
2022-08-05T05:43:57.293Z,44.78
2022-08-05T05:46:17.483Z,44.80
2022-08-05T05:48:48.857Z,44.28
2022-08-05T05:51:25.696Z,43.29
2022-08-05T05:53:58.731Z,43.24
2022-08-05T05:56:32.656Z,43.00
2022-08-05T05:59:06.213Z,42.67
2022-08-05T06:01:39.331Z,42.73
2022-08-05T06:04:11.366Z,42.68
2022-08-05T06:06:47.570Z,42.38
2022-08-05T06:09:25.956Z,42.74
2022-08-05T06:12:05.058Z,43.00
2022-08-05T06:14:34.827Z,42.53
2022-08-05T06:17:21.932Z,42.69
2022-08-05T06:19:56.757Z,43.11
2022-08-05T06:22:34.097Z,42.70
2022-08-05T06:25:25.136Z,41.68
2022-08-05T06:28:10.932Z,41.20
2022-08-05T06:30:41.828Z,40.49
2022-08-05T06:33:10.809Z,41.20
2022-08-05T06:36:07.802Z,41.13
2022-08-05T06:38:36.296Z,41.04
2022-08-05T06:41:08.028Z,40.76
2022-08-05T06:43:57.926Z,39.32
2022-08-05T06:46:30.255Z,39.06
2022-08-05T06:49:01.880Z,39.22
2022-08-05T06:51:34.718Z,39.20
2022-08-05T06:54:04.546Z,38.08
2022-08-05T06:56:34.905Z,38.30
2022-08-05T06:59:08.398Z,37.78
2022-08-05T07:01:37.086Z,37.81
2022-08-05T07:04:09.651Z,38.75
2022-08-05T07:06:38.445Z,39.60
2022-08-05T07:09:06.856Z,39.44
2022-08-05T07:11:36.869Z,39.18
2022-08-05T07:14:29.573Z,38.89
2022-08-05T07:17:58.779Z,39.61
2022-08-05T07:22:42.668Z,39.36
2022-08-05T07:25:54.392Z,39.55
2022-08-05T07:28:04.174Z,39.18
2022-08-05T07:30:39.774Z,38.95
2022-08-05T07:33:16.036Z,38.26
2022-08-05T07:36:02.114Z,38.81
2022-08-05T07:38:43.086Z,38.76
2022-08-05T07:42:09.287Z,38.60
2022-08-05T07:44:18.477Z,38.05
2022-08-05T07:46:49.488Z,38.00
2022-08-05T07:49:20.001Z,37.31
2022-08-05T07:51:54.017Z,37.64
2022-08-05T07:54:33.295Z,38.19
2022-08-05T07:57:16.877Z,38.01
2022-08-05T07:59:55.112Z,37.62
2022-08-05T08:02:30.758Z,37.82
2022-08-05T08:05:01.314Z,37.59
2022-08-05T08:07:39.601Z,37.83
2022-08-05T08:10:20.538Z,37.58
2022-08-05T08:12:50.532Z,37.06
2022-08-05T08:16:33.865Z,35.94
2022-08-05T08:18:13.761Z,35.41
2022-08-05T08:21:02.729Z,35.53
2022-08-05T08:24:01.931Z,35.68
2022-08-05T08:26:26.806Z,35.65
2022-08-05T08:29:21.900Z,35.82
2022-08-05T08:31:51.034Z,35.53
2022-08-05T08:34:30.507Z,35.21
2022-08-05T08:37:04.617Z,34.58
2022-08-05T08:39:37.356Z,33.81
2022-08-05T08:42:34.063Z,33.59
2022-08-05T08:45:24.353Z,33.49
2022-08-05T08:48:07.496Z,32.77
2022-08-05T08:51:03.631Z,31.87
2022-08-05T08:53:45.055Z,30.96
2022-08-05T08:56:13.757Z,29.93
2022-08-05T08:58:44.496Z,29.10
2022-08-05T09:01:19.643Z,29.15
2022-08-05T09:03:58.299Z,28.86
2022-08-05T09:06:30.639Z,29.11
2022-08-05T09:09:01.796Z,28.32
2022-08-05T09:11:50.853Z,28.19
2022-08-05T09:14:59.127Z,27.56
2022-08-05T09:17:40.658Z,26.30
2022-08-05T09:20:05.864Z,26.51
2022-08-05T09:23:18.521Z,26.79
2022-08-05T09:26:02.193Z,26.65
2022-08-05T09:28:34.826Z,26.42
2022-08-05T09:31:23.213Z,25.99
2022-08-05T09:34:01.586Z,25.99
2022-08-05T09:36:56.143Z,26.00
2022-08-05T09:39:45.679Z,25.35
2022-08-05T09:42:28.277Z,24.27
2022-08-05T09:45:17.844Z,22.62
2022-08-05T09:47:57.526Z,22.61
2022-08-05T09:50:44.247Z,23.34
2022-08-05T09:53:23.147Z,23.78
2022-08-05T09:56:11.401Z,23.56
2022-08-05T09:58:47.710Z,22.98
2022-08-05T10:01:32.012Z,23.65
2022-08-05T10:04:10.652Z,23.17
2022-08-05T10:06:54.864Z,22.96
2022-08-05T10:09:29.519Z,23.22
2022-08-05T10:12:18.581Z,22.57
2022-08-05T10:15:23.959Z,21.29
2022-08-05T10:18:13.891Z,21.27
2022-08-05T10:20:56.060Z,21.24
2022-08-05T10:23:55.609Z,21.16
2022-08-05T10:26:15.022Z,21.02
2022-08-05T10:28:46.317Z,21.44
2022-08-05T10:32:52.877Z,20.46
2022-08-05T10:34:37.043Z,20.54
2022-08-05T10:37:13.145Z,19.20
2022-08-05T10:40:03.196Z,19.00
2022-08-05T10:42:43.840Z,18.77
2022-08-05T10:45:23.954Z,19.14
2022-08-05T10:48:52.699Z,19.31
2022-08-05T10:51:29.365Z,19.19
2022-08-05T10:54:05.697Z,19.31
2022-08-05T10:56:53.098Z,19.02
2022-08-05T11:00:03.451Z,18.99
2022-08-05T11:02:37.973Z,18.75
2022-08-05T11:05:10.775Z,19.51
2022-08-05T11:08:02.848Z,19.48
2022-08-05T11:10:50.277Z,19.46
2022-08-05T11:13:57.778Z,18.92
2022-08-05T11:16:34.031Z,19.06
2022-08-05T11:20:17.018Z,19.48
2022-08-05T11:22:43.834Z,19.80
2022-08-05T11:26:04.250Z,20.34
2022-08-05T11:28:26.846Z,20.38
2022-08-05T11:30:58.722Z,20.46
2022-08-05T11:33:48.413Z,19.97
2022-08-05T11:36:34.698Z,19.63
2022-08-05T11:39:09.497Z,18.92
2022-08-05T11:42:01.370Z,18.96
2022-08-05T11:44:41.163Z,19.16
2022-08-05T11:47:49.655Z,19.64
2022-08-05T11:50:14.151Z,19.98
2022-08-05T11:52:49.679Z,19.90
2022-08-05T11:55:20.414Z,19.96
2022-08-05T11:58:09.328Z,19.88
2022-08-05T12:00:41.617Z,20.20
2022-08-05T12:03:29.436Z,20.11
2022-08-05T12:06:02.911Z,20.34
2022-08-05T12:08:32.846Z,20.46
2022-08-05T12:11:06.281Z,20.23
2022-08-05T12:13:49.376Z,19.93
2022-08-05T12:16:27.053Z,19.55
2022-08-05T12:18:56.003Z,19.18
2022-08-05T12:21:29.826Z,18.76
2022-08-05T12:24:07.750Z,18.64
2022-08-05T12:26:50.878Z,18.45
2022-08-05T12:29:23.053Z,18.14
2022-08-05T12:32:01.823Z,18.51
2022-08-05T12:34:37.515Z,18.77
2022-08-05T12:37:17.353Z,18.49
2022-08-05T12:39:55.300Z,18.15
2022-08-05T12:42:32.414Z,17.87
2022-08-05T12:45:08.695Z,18.30
2022-08-05T12:48:01.066Z,18.62
2022-08-05T12:50:27.426Z,18.41
2022-08-05T12:53:00.461Z,18.25
2022-08-05T12:55:35.296Z,18.00
2022-08-05T12:58:49.408Z,18.16
2022-08-05T13:02:01.454Z,18.26
2022-08-05T13:03:48.723Z,18.23
2022-08-05T13:06:17.973Z,17.69
2022-08-05T13:08:52.464Z,17.82
2022-08-05T13:11:25.462Z,17.94
2022-08-05T13:14:15.986Z,17.99
2022-08-05T13:16:59.687Z,17.57
2022-08-05T13:19:40.415Z,17.31
2022-08-05T13:22:27.970Z,17.19
2022-08-05T13:25:00.344Z,18.08
2022-08-05T13:27:37.765Z,18.29
2022-08-05T13:30:33.583Z,17.58
2022-08-05T13:33:01.173Z,17.95
2022-08-05T13:35:46.974Z,17.68
2022-08-05T13:38:30.362Z,17.80
2022-08-05T13:41:03.961Z,17.66
2022-08-05T13:43:43.990Z,17.45
2022-08-05T13:46:16.331Z,17.26
2022-08-05T13:49:00.944Z,17.57
2022-08-05T13:51:40.096Z,17.34
2022-08-05T13:54:12.290Z,17.47
2022-08-05T13:56:45.217Z,17.37
2022-08-05T13:59:25.041Z,17.39
2022-08-05T14:01:58.649Z,17.58
2022-08-05T14:04:51.864Z,17.53
2022-08-05T14:07:55.536Z,17.67
2022-08-05T14:10:18.955Z,17.86
2022-08-05T14:12:57.718Z,17.72
2022-08-05T14:16:04.742Z,17.48
2022-08-05T14:18:17.646Z,17.13
2022-08-05T14:20:54.931Z,17.13
2022-08-05T14:23:25.496Z,17.57
2022-08-05T14:26:38.439Z,17.66
2022-08-05T14:29:04.213Z,17.35
2022-08-05T14:32:02.188Z,17.45
2022-08-05T14:34:23.703Z,17.05
2022-08-05T14:36:52.300Z,16.95
2022-08-05T14:39:23.587Z,17.29
2022-08-05T14:42:19.613Z,17.71
2022-08-05T14:44:41.255Z,17.63
2022-08-05T14:47:11.992Z,17.68
2022-08-05T14:49:59.400Z,17.49
2022-08-05T14:52:51.997Z,18.06
2022-08-05T14:55:24.718Z,17.53
2022-08-05T14:57:54.445Z,17.69
2022-08-05T15:00:27.893Z,18.02
2022-08-05T15:02:57.227Z,18.11
2022-08-05T15:05:29.605Z,17.81
2022-08-05T15:08:06.432Z,17.93
2022-08-05T15:10:46.189Z,18.09
2022-08-05T15:13:15.340Z,18.44
2022-08-05T15:15:54.867Z,18.49
2022-08-05T15:18:25.293Z,19.29
2022-08-05T15:20:54.866Z,19.97
2022-08-05T15:23:23.294Z,20.49
2022-08-05T15:25:56.622Z,20.75
2022-08-05T15:28:27.987Z,20.88
2022-08-05T15:30:57.443Z,20.99
2022-08-05T15:34:04.706Z,21.26
2022-08-05T15:36:17.343Z,21.78
2022-08-05T15:40:59.156Z,21.71
2022-08-05T15:41:58.420Z,21.63
2022-08-05T15:44:30.223Z,21.91
2022-08-05T15:47:02.171Z,21.71
2022-08-05T15:49:53.764Z,21.75
2022-08-05T15:52:51.839Z,21.73
2022-08-05T15:55:16.172Z,21.79
2022-08-05T15:57:48.881Z,21.84
2022-08-05T16:00:25.954Z,21.83
2022-08-05T16:03:01.413Z,22.51
2022-08-05T16:05:30.605Z,22.87
2022-08-05T16:07:59.041Z,22.92
2022-08-05T16:10:28.640Z,23.10
2022-08-05T16:12:57.810Z,23.17
2022-08-05T16:15:32.232Z,23.43
2022-08-05T16:18:01.269Z,23.47
2022-08-05T16:20:33.332Z,23.44
2022-08-05T16:23:02.098Z,23.64
2022-08-05T16:25:33.853Z,23.62
2022-08-05T16:28:09.722Z,23.49
2022-08-05T16:30:38.724Z,23.70
2022-08-05T16:33:07.315Z,23.84
2022-08-05T16:35:42.436Z,23.88
2022-08-05T16:38:23.877Z,23.91
2022-08-05T16:40:59.597Z,24.19
2022-08-05T16:43:33.354Z,24.35
2022-08-05T16:46:23.486Z,24.43
2022-08-05T16:48:52.702Z,24.45
2022-08-05T16:51:21.110Z,24.68
2022-08-05T16:54:04.112Z,24.73
2022-08-05T16:56:37.205Z,25.00
2022-08-05T16:59:10.653Z,25.23
2022-08-05T17:01:52.694Z,25.51
2022-08-05T17:04:26.495Z,25.99
2022-08-05T17:07:03.182Z,25.88
2022-08-05T17:09:58.262Z,26.05
2022-08-05T17:12:50.570Z,26.25
2022-08-05T17:15:19.692Z,26.47
2022-08-05T17:17:55.222Z,26.72
2022-08-05T17:20:26.719Z,27.06
2022-08-05T17:22:55.523Z,27.55
2022-08-05T17:25:40.116Z,27.61
2022-08-05T17:28:15.559Z,28.01
2022-08-05T17:30:51.872Z,28.36
2022-08-05T17:33:21.352Z,28.15
2022-08-05T17:36:07.793Z,28.86
2022-08-05T17:38:37.739Z,28.93
2022-08-05T17:41:11.570Z,28.97
2022-08-05T17:43:57.326Z,29.52
2022-08-05T17:46:26.362Z,29.76
2022-08-05T17:48:57.960Z,29.94
2022-08-05T17:51:26.982Z,30.15
2022-08-05T17:53:55.405Z,30.05
2022-08-05T17:56:23.684Z,30.19
2022-08-05T17:58:57.178Z,30.45
2022-08-05T18:01:25.738Z,31.10
2022-08-05T18:04:03.531Z,31.63
2022-08-05T18:06:34.210Z,32.58
2022-08-05T18:09:03.509Z,33.64
2022-08-05T18:11:33.558Z,33.94
2022-08-05T18:14:04.485Z,33.79
2022-08-05T18:16:51.524Z,34.10
2022-08-05T18:19:23.068Z,34.66
2022-08-05T18:22:08.227Z,36.02
2022-08-05T18:24:39.904Z,35.60
2022-08-05T18:27:12.618Z,35.43
2022-08-05T18:29:53.716Z,35.30
2022-08-05T18:32:25.136Z,35.70
2022-08-05T18:34:58.065Z,36.76
2022-08-05T18:37:34.440Z,36.42
2022-08-05T18:41:49.926Z,36.90
2022-08-05T18:42:59.197Z,37.46
2022-08-05T18:45:41.404Z,37.14
2022-08-05T18:48:11.415Z,36.48
2022-08-05T18:51:01.666Z,36.24
2022-08-05T18:53:50.202Z,36.30
2022-08-05T18:56:21.657Z,35.94
2022-08-05T18:58:50.927Z,35.73
2022-08-05T19:01:33.390Z,35.75
2022-08-05T19:04:24.029Z,35.72
2022-08-05T19:06:58.282Z,35.63
2022-08-05T19:09:26.717Z,35.73
2022-08-05T19:12:00.165Z,35.67
2022-08-05T19:14:59.382Z,35.98
2022-08-05T19:17:19.617Z,36.66
2022-08-05T19:19:51.445Z,37.15
2022-08-05T19:22:22.907Z,37.61
2022-08-05T19:25:02.557Z,38.45
2022-08-05T19:27:31.260Z,38.48
2022-08-05T19:30:03.034Z,38.54
2022-08-05T19:32:32.683Z,38.31
2022-08-05T19:35:06.381Z,38.33
2022-08-05T19:38:06.339Z,38.45
2022-08-05T19:40:24.321Z,38.47
2022-08-05T19:43:00.806Z,38.56
2022-08-05T19:45:36.740Z,38.97
2022-08-05T19:48:05.805Z,39.23
2022-08-05T19:50:35.376Z,38.89
2022-08-05T19:53:09.380Z,37.91
2022-08-05T19:56:14.155Z,37.62
2022-08-05T19:58:29.238Z,37.50
2022-08-05T20:00:59.138Z,37.67
2022-08-05T20:03:37.957Z,37.83
2022-08-05T20:06:15.399Z,37.97
2022-08-05T20:08:47.606Z,38.18
2022-08-05T20:11:19.583Z,38.56
2022-08-05T20:13:58.367Z,38.73
2022-08-05T20:16:37.370Z,38.93
2022-08-05T20:19:06.245Z,39.12
2022-08-05T20:21:35.122Z,39.33
2022-08-05T20:24:07.455Z,39.60
2022-08-05T20:26:40.148Z,40.07
2022-08-05T20:29:26.909Z,40.36
2022-08-05T20:31:58.304Z,40.60
2022-08-05T20:34:28.083Z,40.65
2022-08-05T20:36:56.298Z,40.69
2022-08-05T20:39:24.462Z,40.61
2022-08-05T20:42:05.329Z,40.58
2022-08-05T20:44:34.595Z,40.71
2022-08-05T20:47:07.777Z,40.68
2022-08-05T20:49:39.597Z,40.56
2022-08-05T20:52:10.787Z,40.64
2022-08-05T20:54:42.770Z,40.46
2022-08-05T20:57:44.021Z,40.41
2022-08-05T21:00:41.524Z,40.31
2022-08-05T21:03:07.801Z,40.22
2022-08-05T21:05:53.594Z,40.16
2022-08-05T21:08:41.354Z,40.41
2022-08-05T21:11:12.695Z,40.42
2022-08-05T21:13:47.910Z,40.24
2022-08-05T21:16:29.462Z,40.04
2022-08-05T21:19:01.102Z,40.06
2022-08-05T21:21:43.933Z,40.01
2022-08-05T21:24:20.040Z,39.68
2022-08-05T21:26:53.525Z,39.42
2022-08-05T21:29:32.078Z,39.47
2022-08-05T21:32:03.952Z,39.73
2022-08-05T21:34:33.111Z,40.05
2022-08-05T21:37:05.207Z,40.52
2022-08-05T21:39:34.739Z,41.24
2022-08-05T21:42:11.938Z,41.99
2022-08-05T21:44:57.861Z,42.58
2022-08-05T21:47:56.721Z,42.98
2022-08-05T21:50:16.694Z,43.28
2022-08-05T21:52:47.342Z,43.48
2022-08-05T21:55:17.252Z,43.75
2022-08-05T21:57:45.989Z,44.11
2022-08-05T22:00:15.227Z,44.13
2022-08-05T22:02:44.012Z,44.12
2022-08-05T22:05:13.986Z,44.70
2022-08-05T22:07:59.303Z,45.04
2022-08-05T22:10:31.003Z,45.01
2022-08-05T22:13:09.368Z,45.34
2022-08-05T22:16:02.728Z,45.58
2022-08-05T22:18:36.072Z,45.52
2022-08-05T22:21:18.856Z,45.64
2022-08-05T22:24:09.152Z,45.87
2022-08-05T22:27:00.400Z,46.20
2022-08-05T22:29:35.178Z,46.52
2022-08-05T22:32:04.181Z,46.71
2022-08-05T22:34:33.504Z,46.76
2022-08-05T22:37:03.956Z,46.85
2022-08-05T22:39:34.801Z,46.76
2022-08-05T22:42:12.705Z,46.43
2022-08-05T22:44:48.342Z,46.21
2022-08-05T22:47:29.772Z,46.00
2022-08-05T22:50:22.811Z,46.17
2022-08-05T22:52:52.843Z,45.98
2022-08-05T22:55:23.240Z,45.83
2022-08-05T22:57:53.039Z,45.97
2022-08-05T23:00:23.471Z,46.00
2022-08-05T23:02:53.749Z,46.02
2022-08-05T23:05:23.125Z,45.95
2022-08-05T23:07:51.717Z,46.02
2022-08-05T23:10:24.034Z,46.36
2022-08-05T23:12:55.212Z,46.42
2022-08-05T23:15:29.227Z,46.46
2022-08-05T23:18:01.956Z,46.40
2022-08-05T23:20:33.048Z,46.76
2022-08-05T23:23:07.984Z,47.13
2022-08-05T23:25:53.688Z,47.20
2022-08-05T23:28:29.104Z,47.24
2022-08-05T23:31:15.756Z,47.31
2022-08-05T23:34:04.334Z,47.30
2022-08-05T23:36:41.392Z,47.51
2022-08-05T23:39:17.409Z,47.53
2022-08-05T23:42:00.882Z,47.50
2022-08-05T23:44:31.306Z,47.58
2022-08-05T23:47:02.595Z,47.86
2022-08-05T23:49:47.192Z,48.19
2022-08-05T23:52:30.546Z,48.62
2022-08-05T23:55:10.909Z,48.77
2022-08-05T23:57:41.200Z,48.79
